createdAt,value
2023-03-05T00:04:39.890Z,3.6
2023-03-05T00:10:17.421Z,2.4
2023-03-05T00:15:56.361Z,4.8
2023-03-05T00:21:35.565Z,5.9
2023-03-05T00:27:05.262Z,8.4
2023-03-05T00:32:31.303Z,7.2
2023-03-05T00:38:20.907Z,3.6
2023-03-05T00:43:35.626Z,8.4
2023-03-05T00:49:21.634Z,5.9
2023-03-05T00:55:06.093Z,5.9
2023-03-05T01:00:24.068Z,8.4
2023-03-05T01:05:55.541Z,4.8
2023-03-05T01:11:34.021Z,0
2023-03-05T01:17:16.935Z,3.6
2023-03-05T01:22:37.698Z,3.6
2023-03-05T01:28:21.777Z,7.2
2023-03-05T01:33:46.748Z,7.2
2023-03-05T01:39:07.677Z,7.2
2023-03-05T01:44:50.030Z,5.9
2023-03-05T01:50:21.962Z,5.9
2023-03-05T01:56:02.306Z,7.2
2023-03-05T02:01:24.730Z,7.2
2023-03-05T02:07:01.720Z,4.8
2023-03-05T02:12:53.189Z,0
2023-03-05T02:18:23.107Z,0
2023-03-05T02:23:55.937Z,2.4
2023-03-05T02:29:10.448Z,5.9
2023-03-05T02:34:57.745Z,5.9
2023-03-05T02:40:29.100Z,7.2
2023-03-05T02:45:52.048Z,8.4
2023-03-05T02:51:24.407Z,5.9
2023-03-05T02:56:57.090Z,8.4
2023-03-05T03:02:31.714Z,8.4
2023-03-05T03:08:17.391Z,7.2
2023-03-05T03:13:49.577Z,8.4
2023-03-05T03:19:28.364Z,8.4
2023-03-05T03:25:00.432Z,7.2
2023-03-05T03:30:20.609Z,5.9
2023-03-05T03:35:52.905Z,5.9
2023-03-05T03:41:30.385Z,5.9
2023-03-05T03:46:52.764Z,2.4
2023-03-05T03:52:32.585Z,0
2023-03-05T03:58:21.392Z,0
2023-03-05T04:03:49.054Z,0
2023-03-05T04:09:29.310Z,0
2023-03-05T04:14:52.265Z,0
2023-03-05T04:20:15.534Z,0
2023-03-05T04:25:50.683Z,0
2023-03-05T04:31:41.965Z,0
2023-03-05T04:37:15.396Z,0
2023-03-05T04:42:29.566Z,0
2023-03-05T04:48:14.287Z,0
2023-03-05T04:53:47.697Z,0
2023-03-05T04:59:03.640Z,0
2023-03-05T05:04:32.139Z,0
2023-03-05T05:10:07.169Z,0
2023-03-05T05:15:46.345Z,0
2023-03-05T05:21:30.495Z,0
2023-03-05T05:26:47.153Z,0
2023-03-05T05:32:12.330Z,0
2023-03-05T05:37:51.805Z,0
2023-03-05T05:43:36.697Z,0
2023-03-05T05:49:18.164Z,0
2023-03-05T05:54:32.674Z,0
2023-03-05T06:00:06.786Z,0
2023-03-05T06:05:29.686Z,0
2023-03-05T06:11:18.213Z,0
2023-03-05T06:16:48.635Z,0
2023-03-05T06:22:32.014Z,0
2023-03-05T06:27:47.210Z,0
2023-03-05T06:33:35.137Z,0
2023-03-05T06:39:04.676Z,0
2023-03-05T06:44:38.145Z,0
2023-03-05T06:49:54.306Z,0
2023-03-05T06:55:35.270Z,0
2023-03-05T07:01:12.137Z,0
2023-03-05T07:06:42.521Z,0
2023-03-05T07:12:03.196Z,0
2023-03-05T07:18:00.830Z,0
2023-03-05T07:23:17.030Z,0
2023-03-05T07:29:08.536Z,0
2023-03-05T07:34:29.930Z,0
2023-03-05T07:40:06.168Z,0
2023-03-05T07:45:28.286Z,0
2023-03-05T07:50:57.206Z,0
2023-03-05T07:56:38.041Z,0
2023-03-05T08:02:02.196Z,0
2023-03-05T08:07:49.376Z,0
2023-03-05T08:13:17.808Z,3.6
2023-03-05T08:18:37.874Z,0
2023-03-05T08:24:29.802Z,0
2023-03-05T08:30:04.180Z,0
2023-03-05T08:35:25.514Z,0
2023-03-05T08:41:17.942Z,0
2023-03-05T08:46:46.302Z,2.4
2023-03-05T08:52:19.809Z,3.6
2023-03-05T08:57:35.925Z,3.6
2023-03-05T09:03:08.882Z,3.6
2023-03-05T09:08:51.286Z,3.6
2023-03-05T09:14:29.978Z,2.4
2023-03-05T09:20:14.684Z,2.4
2023-03-05T09:25:37.917Z,2.4
2023-03-05T09:31:19.367Z,2.4
2023-03-05T09:36:32.882Z,0
2023-03-05T09:42:25.992Z,0
2023-03-05T09:47:46.703Z,0
2023-03-05T09:53:11.247Z,0
2023-03-05T09:58:59.008Z,0
2023-03-05T10:04:26.872Z,4.8
2023-03-05T10:10:11.455Z,5.9
2023-03-05T10:15:39.389Z,4.8
2023-03-05T10:21:09.855Z,3.6
2023-03-05T10:26:52.614Z,3.6
2023-03-05T10:32:08.833Z,4.8
2023-03-05T10:37:59.595Z,4.8
2023-03-05T10:43:36.662Z,3.6
2023-03-05T10:49:07.438Z,3.6
2023-03-05T10:54:28.485Z,5.9
2023-03-05T11:00:27.701Z,7.2
2023-03-05T11:06:02.442Z,5.9
2023-03-05T11:11:16.982Z,5.9
2023-03-05T11:17:05.002Z,8.4
2023-03-05T11:22:30.198Z,5.9
2023-03-05T11:27:57.083Z,9.6
2023-03-05T11:33:40.005Z,9.6
2023-03-05T11:39:19.893Z,8.4
2023-03-05T11:44:52.892Z,7.2
2023-03-05T11:50:37.336Z,5.9
2023-03-05T11:56:12.564Z,5.9
2023-03-05T12:01:38.590Z,8.4
2023-03-05T12:07:21.544Z,5.9
2023-03-05T12:12:58.918Z,4.8
2023-03-05T12:18:42.121Z,2.4
2023-03-05T12:24:09.312Z,4.8
2023-03-05T12:29:48.893Z,4.8
2023-03-05T12:35:19.510Z,4.8
2023-03-05T12:41:10.317Z,4.8
2023-03-05T12:46:17.924Z,4.8
2023-03-05T12:52:11.278Z,3.6
2023-03-05T12:57:52.633Z,5.9
2023-03-05T13:03:32.546Z,4.8
2023-03-05T13:08:58.200Z,7.2
2023-03-05T13:14:47.789Z,8.4
2023-03-05T13:19:59.668Z,3.6
2023-03-05T13:25:45.699Z,5.9
2023-03-05T13:31:30.985Z,4.8
2023-03-05T13:36:53.440Z,3.6
2023-03-05T13:42:32.129Z,7.2
2023-03-05T13:48:03.298Z,0
2023-03-05T13:53:44.383Z,0
2023-03-05T13:59:20.576Z,0
2023-03-05T14:04:54.786Z,3.6
2023-03-05T14:10:19.972Z,2.4
2023-03-05T14:16:13.392Z,3.6
2023-03-05T14:21:50.659Z,3.6
2023-03-05T14:27:18.275Z,7.2
2023-03-05T14:32:55.857Z,3.6
2023-03-05T14:38:50.807Z,3.6
2023-03-05T14:44:21.121Z,3.6
2023-03-05T14:49:58.949Z,0
2023-03-05T14:55:14.603Z,3.6
2023-03-05T15:00:56.866Z,0
2023-03-05T15:06:39.523Z,0
2023-03-05T15:11:53.584Z,4.8
2023-03-05T15:17:39.874Z,0
2023-03-05T15:23:15.759Z,0
2023-03-05T15:28:44.336Z,2.4
2023-03-05T15:34:17.843Z,2.4
2023-03-05T15:40:09.173Z,0
2023-03-05T15:45:32.696Z,3.6
2023-03-05T15:51:10.778Z,2.4
2023-03-05T15:56:52.429Z,5.9
2023-03-05T16:02:26.805Z,3.6
2023-03-05T16:08:05.971Z,3.6
2023-03-05T16:13:30.857Z,4.8
2023-03-05T16:18:52.473Z,0
2023-03-05T16:24:38.468Z,2.4
2023-03-05T16:29:59.967Z,3.6
2023-03-05T16:35:57.355Z,0
2023-03-05T16:41:31.421Z,0
2023-03-05T16:47:00.735Z,0
2023-03-05T16:52:37.391Z,0
2023-03-05T16:58:16.465Z,0
2023-03-05T17:03:37.667Z,0
2023-03-05T17:09:22.005Z,0
2023-03-05T17:14:56.204Z,0
2023-03-05T17:20:14.511Z,0
2023-03-05T17:25:40.013Z,0
2023-03-05T17:31:16.422Z,0
2023-03-05T17:37:02.872Z,0
2023-03-05T17:42:28.822Z,0
2023-03-05T17:48:10.355Z,5.9
2023-03-05T17:53:31.848Z,9.6
2023-03-05T17:59:06.144Z,10.7
2023-03-05T18:04:32.375Z,9.6
2023-03-05T18:10:27.275Z,8.4
2023-03-05T18:15:39.489Z,7.2
2023-03-05T18:21:25.311Z,4.8
2023-03-05T18:26:51.459Z,8.4
2023-03-05T18:32:24.256Z,10.7
2023-03-05T18:38:04.398Z,10.7
2023-03-05T18:43:38.053Z,11.9
2023-03-05T18:49:13.652Z,8.4
2023-03-05T18:54:42.406Z,4.8
2023-03-05T19:00:21.726Z,2.4
2023-03-05T19:05:58.633Z,0
2023-03-05T19:11:15.781Z,0
2023-03-05T19:17:09.184Z,0
2023-03-05T19:22:26.700Z,0
2023-03-05T19:28:03.144Z,0
2023-03-05T19:33:39.386Z,0
2023-03-05T19:39:04.824Z,2.4
2023-03-05T19:45:00.128Z,0
2023-03-05T19:50:05.976Z,0
2023-03-05T19:55:56.002Z,0
2023-03-05T20:01:22.791Z,0
2023-03-05T20:07:01.401Z,0
2023-03-05T20:12:23.219Z,0
2023-03-05T20:17:57.307Z,0
2023-03-05T20:23:23.124Z,0
2023-03-05T20:29:14.261Z,0
2023-03-05T20:34:30.970Z,0
2023-03-05T20:40:24.288Z,0
2023-03-05T20:45:43.747Z,0
2023-03-05T20:51:30.894Z,0
2023-03-05T20:56:59.030Z,0
2023-03-05T21:02:31.679Z,0
2023-03-05T21:07:56.877Z,0
2023-03-05T21:13:26.000Z,0
2023-03-05T21:18:59.994Z,0
2023-03-05T21:24:24.339Z,0
2023-03-05T21:30:12.641Z,0
2023-03-05T21:35:49.242Z,0
2023-03-05T21:41:26.330Z,0
2023-03-05T21:46:55.561Z,0
2023-03-05T21:52:24.552Z,0
2023-03-05T21:57:53.201Z,0
2023-03-05T22:03:27.589Z,0
2023-03-05T22:09:04.140Z,0
2023-03-05T22:14:42.517Z,0
2023-03-05T22:20:07.460Z,0
2023-03-05T22:25:21.851Z,0
2023-03-05T22:31:03.457Z,0
2023-03-05T22:36:52.945Z,0
2023-03-05T22:42:01.019Z,0
2023-03-05T22:47:50.256Z,0
2023-03-05T22:53:10.528Z,0
2023-03-05T22:58:48.078Z,0
2023-03-05T23:04:10.182Z,0
2023-03-05T23:09:52.290Z,0
2023-03-05T23:15:36.509Z,0
2023-03-05T23:21:08.748Z,0
2023-03-05T23:26:22.429Z,0
2023-03-05T23:31:52.761Z,0
2023-03-05T23:37:40.742Z,0
2023-03-05T23:43:05.405Z,0
2023-03-05T23:48:50.878Z,0
2023-03-05T23:54:30.152Z,0
2023-03-05T23:59:53.780Z,0
